Time,TemperatureF,DewpointF,PressureIn,WindDirection,WindDirectionDegrees,WindSpeedMPH,WindSpeedGustMPH,Humidity,HourlyPrecipIn,Conditions,Clouds,dailyrainin,SoftwareType,DateUTC
2013-07-10 00:01:00,79.5,71.2,30.10,NW,314,0.0,2.0,76,0.00,,,0.02,meteohub,2013-07-10 04:01:00,
2013-07-10 00:02:00,79.5,70.9,30.10,NW,314,0.0,2.0,75,0.00,,,0.02,meteohub,2013-07-10 04:02:00,
2013-07-10 00:07:00,79.5,71.2,30.10,NW,314,0.0,2.0,76,0.00,,,0.00,meteohub,2013-07-10 04:07:00,
2013-07-10 00:12:00,79.5,71.2,30.10,NW,314,0.0,2.0,76,0.00,,,0.00,meteohub,2013-07-10 04:12:00,
2013-07-10 00:17:00,79.5,71.2,30.10,NW,314,0.0,2.0,76,0.00,,,0.00,meteohub,2013-07-10 04:17:00,
2013-07-10 00:22:00,79.3,71.4,30.10,NW,314,0.0,3.0,77,0.00,,,0.00,meteohub,2013-07-10 04:22:00,
2013-07-10 00:27:00,79.3,72.0,30.10,NW,314,0.0,3.0,78,0.00,,,0.00,meteohub,2013-07-10 04:27:00,
2013-07-10 00:32:00,79.2,71.8,30.09,NW,314,0.0,3.0,78,0.00,,,0.00,meteohub,2013-07-10 04:32:00,
2013-07-10 00:37:00,79.2,72.1,30.09,NW,314,0.0,1.0,79,0.00,,,0.00,meteohub,2013-07-10 04:37:00,
2013-07-10 00:42:00,79.0,72.0,30.09,NW,314,0.0,2.0,79,0.00,,,0.00,meteohub,2013-07-10 04:42:00,
2013-07-10 00:47:00,79.0,72.3,30.09,NW,314,0.0,3.0,80,0.00,,,0.00,meteohub,2013-07-10 04:47:00,
2013-07-10 00:53:00,79.2,72.5,30.09,NW,314,1.0,3.0,80,0.00,,,0.00,meteohub,2013-07-10 04:53:00,
2013-07-10 00:58:00,79.0,72.3,30.09,NW,314,0.0,3.0,80,0.00,,,0.00,meteohub,2013-07-10 04:58:00,
2013-07-10 01:03:00,79.0,72.3,30.10,NW,314,0.0,2.0,80,0.00,,,0.00,meteohub,2013-07-10 05:03:00,
2013-07-10 01:08:00,78.8,72.5,30.09,NW,314,0.0,2.0,81,0.00,,,0.00,meteohub,2013-07-10 05:08:00,
2013-07-10 01:13:00,78.6,72.3,30.09,NW,314,0.0,0.0,81,0.00,,,0.00,meteohub,2013-07-10 05:13:00,
2013-07-10 01:18:00,78.6,72.3,30.10,NW,314,0.0,0.0,81,0.00,,,0.00,meteohub,2013-07-10 05:18:00,
2013-07-10 01:23:00,78.6,72.3,30.10,NW,314,0.0,1.0,81,0.00,,,0.00,meteohub,2013-07-10 05:23:00,
2013-07-10 01:28:00,78.4,72.1,30.09,NW,314,0.0,1.0,81,0.00,,,0.00,meteohub,2013-07-10 05:28:00,
2013-07-10 01:33:00,78.4,72.1,30.09,NW,314,0.0,1.0,81,0.00,,,0.00,meteohub,2013-07-10 05:33:00,
2013-07-10 01:38:00,78.4,72.1,30.09,NW,314,0.0,0.0,81,0.00,,,0.00,meteohub,2013-07-10 05:38:00,
2013-07-10 01:43:00,78.4,72.1,30.09,NW,314,0.0,0.0,81,0.00,,,0.00,meteohub,2013-07-10 05:43:00,
2013-07-10 01:48:00,78.4,72.1,30.09,NW,314,0.0,1.0,81,0.00,,,0.00,meteohub,2013-07-10 05:48:00,
2013-07-10 01:53:00,78.6,72.3,30.09,NW,314,0.0,1.0,81,0.00,,,0.00,meteohub,2013-07-10 05:53:00,
2013-07-10 01:59:00,78.6,72.3,30.09,NW,314,0.0,0.0,81,0.00,,,0.00,meteohub,2013-07-10 05:59:00,
2013-07-10 02:04:00,78.6,72.3,30.08,NW,314,0.0,0.0,81,0.00,,,0.00,meteohub,2013-07-10 06:04:00,
2013-07-10 02:09:00,78.6,72.3,30.08,NW,314,0.0,0.0,81,0.00,,,0.00,meteohub,2013-07-10 06:09:00,
2013-07-10 02:15:00,78.8,72.5,30.08,NW,314,0.0,0.0,81,0.00,,,0.00,meteohub,2013-07-10 06:15:00,
2013-07-10 02:20:00,79.2,73.2,30.08,East,79,0.0,9.0,82,0.00,,,0.00,meteohub,2013-07-10 06:20:00,
2013-07-10 02:25:00,79.9,73.6,30.08,East,89,3.0,9.0,81,0.00,,,0.00,meteohub,2013-07-10 06:25:00,
2013-07-10 02:31:00,80.2,73.6,30.08,East,82,2.0,9.0,80,0.00,,,0.00,meteohub,2013-07-10 06:31:00,
2013-07-10 02:36:00,80.6,73.9,30.08,East,82,2.0,9.0,80,0.00,,,0.00,meteohub,2013-07-10 06:36:00,
2013-07-10 02:41:00,80.8,73.9,30.08,East,83,7.0,8.0,80,0.00,,,0.00,meteohub,2013-07-10 06:41:00,
2013-07-10 02:46:00,80.8,73.6,30.07,ENE,78,2.0,9.0,79,0.00,,,0.00,meteohub,2013-07-10 06:46:00,
2013-07-10 02:51:00,80.6,73.4,30.07,ENE,77,8.0,9.0,79,0.00,,,0.00,meteohub,2013-07-10 06:51:00,
2013-07-10 02:56:00,80.6,73.9,30.07,ENE,78,5.0,9.0,80,0.00,,,0.00,meteohub,2013-07-10 06:56:00,
2013-07-10 03:01:00,80.4,74.1,30.08,ENE,78,8.0,9.0,81,0.00,,,0.00,meteohub,2013-07-10 07:01:00,
2013-07-10 03:06:00,80.4,74.1,30.07,East,86,8.0,11.0,81,0.00,,,0.00,meteohub,2013-07-10 07:06:00,
2013-07-10 03:12:00,80.2,73.9,30.07,East,88,3.0,11.0,81,0.00,,,0.00,meteohub,2013-07-10 07:12:00,
2013-07-10 03:17:00,80.2,73.9,30.07,East,83,1.0,11.0,81,0.00,,,0.00,meteohub,2013-07-10 07:17:00,
2013-07-10 03:22:00,80.2,73.9,30.07,East,83,2.0,10.0,81,0.00,,,0.00,meteohub,2013-07-10 07:22:00,
2013-07-10 03:27:00,80.1,73.8,30.07,East,83,0.0,9.0,81,0.00,,,0.00,meteohub,2013-07-10 07:27:00,
2013-07-10 03:32:00,80.1,73.8,30.08,East,84,3.0,9.0,81,0.00,,,0.00,meteohub,2013-07-10 07:32:00,
2013-07-10 03:37:00,80.1,73.8,30.08,East,86,6.0,8.0,81,0.00,,,0.00,meteohub,2013-07-10 07:37:00,
2013-07-10 03:42:00,80.1,74.1,30.08,East,88,5.0,8.0,82,0.00,,,0.00,meteohub,2013-07-10 07:42:00,
2013-07-10 03:47:00,80.2,74.3,30.08,East,83,5.0,8.0,82,0.00,,,0.00,meteohub,2013-07-10 07:47:00,
2013-07-10 03:52:00,80.1,74.1,30.07,East,91,7.0,8.0,82,0.00,,,0.00,meteohub,2013-07-10 07:52:00,
2013-07-10 03:57:00,80.1,74.1,30.07,East,82,7.0,8.0,82,0.00,,,0.00,meteohub,2013-07-10 07:57:00,
2013-07-10 04:02:00,79.9,73.6,30.07,East,92,0.0,9.0,81,0.00,,,0.00,meteohub,2013-07-10 08:02:00,
2013-07-10 04:07:00,79.9,73.9,30.07,East,84,5.0,10.0,82,0.00,,,0.00,meteohub,2013-07-10 08:07:00,
2013-07-10 04:12:00,79.9,73.9,30.07,East,80,3.0,10.0,82,0.00,,,0.00,meteohub,2013-07-10 08:12:00,
2013-07-10 04:17:00,79.9,73.9,30.07,East,85,1.0,10.0,82,0.00,,,0.00,meteohub,2013-07-10 08:17:00,
2013-07-10 04:22:00,79.9,73.9,30.07,East,85,5.0,10.0,82,0.00,,,0.00,meteohub,2013-07-10 08:22:00,
2013-07-10 04:27:00,79.7,73.8,30.07,East,84,1.0,9.0,82,0.00,,,0.00,meteohub,2013-07-10 08:27:00,
2013-07-10 04:32:00,79.7,73.8,30.07,East,85,3.0,9.0,82,0.00,,,0.00,meteohub,2013-07-10 08:32:00,
2013-07-10 04:37:00,79.5,73.6,30.08,East,83,3.0,9.0,82,0.00,,,0.00,meteohub,2013-07-10 08:37:00,
2013-07-10 04:42:00,79.5,73.6,30.08,East,80,6.0,9.0,82,0.00,,,0.00,meteohub,2013-07-10 08:42:00,
2013-07-10 04:47:00,79.5,73.6,30.07,East,92,6.0,10.0,82,0.00,,,0.00,meteohub,2013-07-10 08:47:00,
2013-07-10 04:52:00,79.5,73.2,30.07,East,83,2.0,11.0,81,0.00,,,0.00,meteohub,2013-07-10 08:52:00,
2013-07-10 04:57:00,79.5,73.2,30.07,East,94,9.0,11.0,81,0.00,,,0.00,meteohub,2013-07-10 08:57:00,
2013-07-10 05:02:00,79.5,72.9,30.07,East,80,6.0,11.0,80,0.00,,,0.00,meteohub,2013-07-10 09:02:00,
2013-07-10 05:07:00,79.5,72.9,30.07,East,90,6.0,11.0,80,0.00,,,0.00,meteohub,2013-07-10 09:07:00,
2013-07-10 05:12:00,79.5,72.9,30.07,East,90,1.0,11.0,80,0.00,,,0.00,meteohub,2013-07-10 09:12:00,
2013-07-10 05:17:00,79.5,72.9,30.07,East,85,7.0,10.0,80,0.00,,,0.00,meteohub,2013-07-10 09:17:00,
2013-07-10 05:22:00,79.5,72.9,30.07,East,86,6.0,10.0,80,0.00,,,0.00,meteohub,2013-07-10 09:22:00,
2013-07-10 05:27:00,79.5,73.2,30.07,East,92,5.0,10.0,81,0.00,,,0.00,meteohub,2013-07-10 09:27:00,
2013-07-10 05:32:00,79.5,72.9,30.07,East,94,5.0,10.0,80,0.00,,,0.00,meteohub,2013-07-10 09:32:00,
2013-07-10 05:37:00,79.5,72.9,30.07,East,92,5.0,10.0,80,0.00,,,0.00,meteohub,2013-07-10 09:37:00,
2013-07-10 05:42:00,79.3,72.7,30.07,East,92,7.0,10.0,80,0.00,,,0.00,meteohub,2013-07-10 09:42:00,
2013-07-10 05:48:00,79.5,72.9,30.07,East,94,7.0,11.0,80,0.00,,,0.00,meteohub,2013-07-10 09:48:00,
2013-07-10 05:53:00,79.3,72.7,30.08,East,90,2.0,11.0,80,0.00,,,0.00,meteohub,2013-07-10 09:53:00,
2013-07-10 05:58:00,79.3,72.7,30.07,East,89,8.0,11.0,80,0.00,,,0.00,meteohub,2013-07-10 09:58:00,
2013-07-10 06:04:00,79.3,72.7,30.07,East,93,3.0,10.0,80,0.00,,,0.00,meteohub,2013-07-10 10:04:00,
2013-07-10 06:09:00,79.3,73.0,30.07,East,92,0.0,10.0,81,0.00,,,0.00,meteohub,2013-07-10 10:09:00,
2013-07-10 06:14:00,79.3,72.7,30.07,East,92,3.0,10.0,80,0.00,,,0.00,meteohub,2013-07-10 10:14:00,
2013-07-10 06:19:00,79.2,72.9,30.07,East,92,2.0,10.0,81,0.00,,,0.00,meteohub,2013-07-10 10:19:00,
2013-07-10 06:24:00,79.0,72.3,30.07,East,92,1.0,9.0,80,0.00,,,0.00,meteohub,2013-07-10 10:24:00,
2013-07-10 06:30:00,79.0,72.7,30.07,East,91,2.0,9.0,81,0.00,,,0.00,meteohub,2013-07-10 10:30:00,
2013-07-10 06:35:00,79.0,73.0,30.07,East,89,1.0,7.0,82,0.00,,,0.00,meteohub,2013-07-10 10:35:00,
2013-07-10 06:40:00,79.0,73.0,30.07,East,89,0.0,7.0,82,0.00,,,0.00,meteohub,2013-07-10 10:40:00,
2013-07-10 06:46:00,78.8,72.9,30.07,East,89,2.0,7.0,82,0.00,,,0.00,meteohub,2013-07-10 10:46:00,
2013-07-10 06:51:00,78.6,72.7,30.07,East,89,5.0,7.0,82,0.00,,,0.00,meteohub,2013-07-10 10:51:00,
2013-07-10 06:56:00,78.8,72.9,30.07,East,89,0.0,7.0,82,0.00,,,0.00,meteohub,2013-07-10 10:56:00,
2013-07-10 07:02:00,79.0,73.4,30.07,East,89,2.0,7.0,83,0.00,,,0.00,meteohub,2013-07-10 11:02:00,
2013-07-10 07:07:00,79.2,73.6,30.07,East,89,6.0,6.0,83,0.00,,,0.00,meteohub,2013-07-10 11:07:00,
2013-07-10 07:12:00,79.3,73.8,30.07,East,89,0.0,7.0,83,0.00,,,0.00,meteohub,2013-07-10 11:12:00,
2013-07-10 07:18:00,79.5,73.9,30.07,East,89,2.0,7.0,83,0.00,,,0.00,meteohub,2013-07-10 11:18:00,
2013-07-10 07:23:00,79.9,74.3,30.07,East,89,1.0,7.0,83,0.00,,,0.00,meteohub,2013-07-10 11:23:00,
2013-07-10 07:28:00,79.9,74.3,30.08,East,90,5.0,6.0,83,0.00,,,0.00,meteohub,2013-07-10 11:28:00,
2013-07-10 07:34:00,79.5,73.9,30.07,East,101,6.0,6.0,83,0.00,,,0.00,meteohub,2013-07-10 11:34:00,
2013-07-10 07:39:00,79.5,73.9,30.08,East,101,1.0,7.0,83,0.00,,,0.00,meteohub,2013-07-10 11:39:00,
2013-07-10 07:44:00,79.3,73.8,30.08,ESE,108,2.0,7.0,83,0.00,,,0.00,meteohub,2013-07-10 11:44:00,
2013-07-10 07:49:00,79.2,73.6,30.08,ESE,108,3.0,7.0,83,0.00,,,0.00,meteohub,2013-07-10 11:49:00,
2013-07-10 07:55:00,79.5,73.9,30.08,ESE,108,0.0,7.0,83,0.00,,,0.00,meteohub,2013-07-10 11:55:00,
2013-07-10 08:00:00,79.7,74.1,30.08,ESE,107,3.0,7.0,83,0.00,,,0.00,meteohub,2013-07-10 12:00:00,
2013-07-10 08:05:00,79.7,73.8,30.09,ESE,107,0.0,7.0,82,0.00,,,0.00,meteohub,2013-07-10 12:05:00,
2013-07-10 08:10:00,79.7,73.8,30.09,ESE,107,0.0,5.0,82,0.00,,,0.00,meteohub,2013-07-10 12:10:00,
2013-07-10 08:15:00,80.1,74.1,30.09,ESE,107,0.0,5.0,82,0.00,,,0.00,meteohub,2013-07-10 12:15:00,
2013-07-10 08:20:00,80.4,74.1,30.09,ESE,107,1.0,5.0,81,0.00,,,0.00,meteohub,2013-07-10 12:20:00,
2013-07-10 08:25:00,81.1,74.7,30.09,ESE,107,3.0,5.0,81,0.00,,,0.00,meteohub,2013-07-10 12:25:00,
2013-07-10 08:30:00,81.3,74.1,30.09,ESE,107,0.0,5.0,79,0.00,,,0.00,meteohub,2013-07-10 12:30:00,
2013-07-10 08:36:00,81.9,74.3,30.09,ESE,107,0.0,4.0,78,0.00,,,0.00,meteohub,2013-07-10 12:36:00,
2013-07-10 08:41:00,82.0,74.1,30.09,ESE,107,1.0,4.0,77,0.00,,,0.00,meteohub,2013-07-10 12:41:00,
2013-07-10 08:46:00,82.6,74.7,30.10,ESE,107,2.0,4.0,77,0.00,,,0.00,meteohub,2013-07-10 12:46:00,
2013-07-10 08:51:00,82.6,74.7,30.09,ESE,107,0.0,4.0,77,0.00,,,0.00,meteohub,2013-07-10 12:51:00,
2013-07-10 08:56:00,82.8,74.8,30.10,ESE,107,1.0,4.0,77,0.00,,,0.00,meteohub,2013-07-10 12:56:00,
2013-07-10 09:01:00,82.8,74.8,30.10,ESE,107,0.0,4.0,77,0.00,,,0.00,meteohub,2013-07-10 13:01:00,
2013-07-10 09:06:00,82.9,75.0,30.10,ESE,107,0.0,4.0,77,0.00,,,0.00,meteohub,2013-07-10 13:06:00,
2013-07-10 09:12:00,83.1,74.8,30.09,ESE,107,0.0,4.0,76,0.00,,,0.00,meteohub,2013-07-10 13:12:00,
2013-07-10 09:17:00,83.5,74.7,30.09,ESE,107,0.0,3.0,75,0.00,,,0.00,meteohub,2013-07-10 13:17:00,
2013-07-10 09:22:00,84.2,75.0,30.09,ESE,107,0.0,3.0,74,0.00,,,0.00,meteohub,2013-07-10 13:22:00,
2013-07-10 09:27:00,83.8,74.7,30.10,ESE,107,0.0,3.0,74,0.00,,,0.00,meteohub,2013-07-10 13:27:00,
2013-07-10 09:32:00,84.2,75.0,30.10,ESE,107,0.0,3.0,74,0.00,,,0.00,meteohub,2013-07-10 13:32:00,
2013-07-10 09:37:00,84.6,75.0,30.10,ESE,107,0.0,4.0,73,0.00,,,0.00,meteohub,2013-07-10 13:37:00,
2013-07-10 09:42:00,85.1,75.4,30.10,ESE,107,7.0,7.0,73,0.00,,,0.00,meteohub,2013-07-10 13:42:00,
2013-07-10 09:47:00,85.5,75.4,30.10,ESE,107,0.0,7.0,72,0.00,,,0.00,meteohub,2013-07-10 13:47:00,
2013-07-10 09:52:00,85.3,75.2,30.10,ESE,107,0.0,7.0,72,0.00,,,0.00,meteohub,2013-07-10 13:52:00,
2013-07-10 09:57:00,84.9,75.2,30.10,ESE,107,0.0,7.0,73,0.00,,,0.00,meteohub,2013-07-10 13:57:00,
2013-07-10 10:02:00,84.9,75.2,30.10,ESE,107,0.0,4.0,73,0.00,,,0.00,meteohub,2013-07-10 14:02:00,
2013-07-10 10:07:00,84.9,75.2,30.10,ESE,107,0.0,5.0,73,0.00,,,0.00,meteohub,2013-07-10 14:07:00,
2013-07-10 10:12:00,85.3,75.6,30.10,ESE,107,0.0,5.0,73,0.00,,,0.00,meteohub,2013-07-10 14:12:00,
2013-07-10 10:17:00,85.5,75.4,30.09,ESE,107,1.0,5.0,72,0.00,,,0.00,meteohub,2013-07-10 14:17:00,
2013-07-10 10:22:00,85.5,75.4,30.09,ESE,107,0.0,5.0,72,0.00,,,0.00,meteohub,2013-07-10 14:22:00,
2013-07-10 10:27:00,85.6,75.6,30.09,ESE,107,0.0,5.0,72,0.00,,,0.00,meteohub,2013-07-10 14:27:00,
2013-07-10 10:32:00,85.8,75.4,30.09,ESE,107,0.0,4.0,71,0.00,,,0.00,meteohub,2013-07-10 14:32:00,
2013-07-10 10:37:00,85.8,75.4,30.09,ESE,107,7.0,7.0,71,0.00,,,0.00,meteohub,2013-07-10 14:37:00,
2013-07-10 10:42:00,85.8,74.8,30.09,ESE,105,2.0,7.0,70,0.00,,,0.00,meteohub,2013-07-10 14:42:00,
2013-07-10 10:47:00,85.8,74.8,30.09,ESE,105,0.0,9.0,70,0.00,,,0.00,meteohub,2013-07-10 14:47:00,
2013-07-10 10:53:00,86.2,75.2,30.09,ESE,103,2.0,9.0,70,0.00,,,0.00,meteohub,2013-07-10 14:53:00,
2013-07-10 10:58:00,86.2,74.3,30.09,East,101,5.0,5.0,68,0.00,,,0.00,meteohub,2013-07-10 14:58:00,
2013-07-10 11:03:00,86.4,74.5,30.09,East,101,1.0,7.0,68,0.00,,,0.00,meteohub,2013-07-10 15:03:00,
2013-07-10 11:08:00,86.7,73.9,30.09,East,99,5.0,7.0,66,0.00,,,0.00,meteohub,2013-07-10 15:08:00,
2013-07-10 11:13:00,86.7,73.9,30.09,East,99,0.0,7.0,66,0.00,,,0.00,meteohub,2013-07-10 15:13:00,
2013-07-10 11:18:00,87.1,74.3,30.09,East,98,1.0,6.0,66,0.00,,,0.00,meteohub,2013-07-10 15:18:00,
2013-07-10 11:24:00,87.4,73.8,30.09,East,94,6.0,8.0,64,0.00,,,0.00,meteohub,2013-07-10 15:24:00,
2013-07-10 11:29:00,87.4,73.8,30.09,East,92,7.0,8.0,64,0.00,,,0.00,meteohub,2013-07-10 15:29:00,
2013-07-10 11:34:00,88.0,74.3,30.09,East,90,3.0,9.0,64,0.00,,,0.00,meteohub,2013-07-10 15:34:00,
2013-07-10 11:39:00,88.2,74.5,30.09,East,89,2.0,9.0,64,0.00,,,0.00,meteohub,2013-07-10 15:39:00,
2013-07-10 11:44:00,88.0,73.8,30.09,East,95,6.0,8.0,63,0.00,,,0.00,meteohub,2013-07-10 15:44:00,
2013-07-10 11:49:00,88.2,74.5,30.09,East,92,8.0,10.0,64,0.00,,,0.00,meteohub,2013-07-10 15:49:00,
2013-07-10 11:55:00,88.3,74.7,30.09,East,92,1.0,10.0,64,0.00,,,0.00,meteohub,2013-07-10 15:55:00,
2013-07-10 12:00:00,88.5,73.8,30.09,East,92,0.0,10.0,62,0.00,,,0.00,meteohub,2013-07-10 16:00:00,
2013-07-10 12:05:00,89.1,73.4,30.09,East,92,5.0,9.0,60,0.00,,,0.00,meteohub,2013-07-10 16:05:00,
2013-07-10 12:10:00,88.9,74.1,30.09,East,92,0.0,8.0,62,0.00,,,0.00,meteohub,2013-07-10 16:10:00,
2013-07-10 12:15:00,89.1,73.9,30.09,East,92,0.0,8.0,61,0.00,,,0.00,meteohub,2013-07-10 16:15:00,
2013-07-10 12:21:00,88.7,74.5,30.09,East,92,5.0,8.0,63,0.00,,,0.00,meteohub,2013-07-10 16:21:00,
2013-07-10 12:26:00,88.5,74.3,30.09,East,92,2.0,7.0,63,0.00,,,0.00,meteohub,2013-07-10 16:26:00,
2013-07-10 12:31:00,88.3,74.1,30.09,East,92,0.0,7.0,63,0.00,,,0.00,meteohub,2013-07-10 16:31:00,
2013-07-10 12:36:00,88.5,73.4,30.09,East,92,1.0,7.0,61,0.00,,,0.00,meteohub,2013-07-10 16:36:00,
2013-07-10 12:41:00,88.9,75.2,30.09,East,92,0.0,5.0,64,0.00,,,0.00,meteohub,2013-07-10 16:41:00,
2013-07-10 12:46:00,89.4,75.2,30.09,East,92,0.0,5.0,63,0.00,,,0.00,meteohub,2013-07-10 16:46:00,
2013-07-10 12:52:00,89.6,74.3,30.09,East,92,3.0,5.0,61,0.00,,,0.00,meteohub,2013-07-10 16:52:00,
2013-07-10 12:57:00,89.2,74.5,30.08,East,94,2.0,5.0,62,0.00,,,0.00,meteohub,2013-07-10 16:57:00,
2013-07-10 13:02:00,89.8,74.1,30.08,East,85,5.0,7.0,60,0.00,,,0.00,meteohub,2013-07-10 17:02:00,
2013-07-10 13:07:00,90.0,74.1,30.08,ENE,74,1.0,10.0,60,0.00,,,0.00,meteohub,2013-07-10 17:07:00,
2013-07-10 13:12:00,90.7,74.3,30.08,ENE,61,1.0,10.0,59,0.00,,,0.00,meteohub,2013-07-10 17:12:00,
2013-07-10 13:17:00,90.7,73.9,30.08,West,267,5.0,10.0,58,0.00,,,0.00,meteohub,2013-07-10 17:17:00,
2013-07-10 13:22:00,88.7,73.9,30.08,West,267,2.0,12.0,62,0.00,,,0.00,meteohub,2013-07-10 17:22:00,
2013-07-10 13:27:00,87.8,74.1,30.08,West,271,4.0,12.0,64,0.00,,,0.00,meteohub,2013-07-10 17:27:00,
2013-07-10 13:32:00,87.3,74.1,30.08,West,271,2.0,12.0,65,0.00,,,0.00,meteohub,2013-07-10 17:32:00,
2013-07-10 13:37:00,87.8,74.5,30.07,West,271,2.0,5.0,65,0.00,,,0.00,meteohub,2013-07-10 17:37:00,
2013-07-10 13:42:00,88.7,74.5,30.07,West,271,2.0,4.0,63,0.00,,,0.00,meteohub,2013-07-10 17:42:00,
2013-07-10 13:47:00,89.6,75.4,30.06,West,271,2.0,4.0,63,0.00,,,0.00,meteohub,2013-07-10 17:47:00,
2013-07-10 13:52:00,88.9,74.7,30.06,WNW,294,1.0,4.0,63,0.00,,,0.00,meteohub,2013-07-10 17:52:00,
2013-07-10 13:57:00,88.5,74.8,30.06,West,259,4.0,8.0,64,0.00,,,0.00,meteohub,2013-07-10 17:57:00,
2013-07-10 14:02:00,88.0,74.7,30.06,WNW,286,3.0,8.0,65,0.00,,,0.00,meteohub,2013-07-10 18:02:00,
2013-07-10 14:07:00,88.3,74.7,30.05,NW,307,0.0,8.0,64,0.00,,,0.00,meteohub,2013-07-10 18:07:00,
2013-07-10 14:12:00,88.9,74.1,30.05,NW,323,2.0,8.0,62,0.00,,,0.00,meteohub,2013-07-10 18:12:00,
2013-07-10 14:17:00,88.9,74.1,30.05,NW,317,3.0,8.0,62,0.00,,,0.00,meteohub,2013-07-10 18:17:00,
2013-07-10 14:22:00,88.5,74.3,30.05,NW,317,0.0,8.0,63,0.00,,,0.00,meteohub,2013-07-10 18:22:00,
2013-07-10 14:27:00,89.1,74.3,30.04,NW,307,4.0,6.0,62,0.00,,,0.00,meteohub,2013-07-10 18:27:00,
2013-07-10 14:32:00,88.7,73.9,30.04,NW,318,6.0,7.0,62,0.00,,,0.00,meteohub,2013-07-10 18:32:00,
2013-07-10 14:37:00,89.1,74.8,30.04,WNW,291,0.0,8.0,63,0.00,,,0.00,meteohub,2013-07-10 18:37:00,
2013-07-10 14:42:00,90.1,74.8,30.04,WNW,291,4.0,8.0,61,0.00,,,0.00,meteohub,2013-07-10 18:42:00,
2013-07-10 14:47:00,90.3,74.5,30.03,WNW,290,1.0,8.0,60,0.00,,,0.00,meteohub,2013-07-10 18:47:00,
2013-07-10 14:52:00,90.7,74.8,30.03,WNW,290,0.0,6.0,60,0.00,,,0.00,meteohub,2013-07-10 18:52:00,
2013-07-10 14:57:00,91.0,74.7,30.03,WNW,291,0.0,6.0,59,0.00,,,0.00,meteohub,2013-07-10 18:57:00,
2013-07-10 15:02:00,91.4,74.5,30.03,NW,319,1.0,5.0,58,0.00,,,0.00,meteohub,2013-07-10 19:02:00,
2013-07-10 15:07:00,91.2,74.3,30.03,NW,305,2.0,7.0,58,0.00,,,0.00,meteohub,2013-07-10 19:07:00,
2013-07-10 15:12:00,90.9,74.1,30.02,NW,305,3.0,7.0,58,0.00,,,0.00,meteohub,2013-07-10 19:12:00,
2013-07-10 15:17:00,91.2,74.8,30.02,NW,305,1.0,7.0,59,0.00,,,0.00,meteohub,2013-07-10 19:17:00,
2013-07-10 15:22:00,91.6,74.7,30.02,NW,308,0.0,5.0,58,0.00,,,0.00,meteohub,2013-07-10 19:22:00,
2013-07-10 15:27:00,91.2,74.3,30.02,NW,308,1.0,5.0,58,0.00,,,0.00,meteohub,2013-07-10 19:27:00,
2013-07-10 15:33:00,91.6,74.7,30.02,NW,308,0.0,4.0,58,0.00,,,0.00,meteohub,2013-07-10 19:33:00,
2013-07-10 15:38:00,91.9,75.0,30.01,NW,308,0.0,4.0,58,0.00,,,0.00,meteohub,2013-07-10 19:38:00,
2013-07-10 15:43:00,91.8,75.4,30.01,NW,304,5.0,5.0,59,0.00,,,0.00,meteohub,2013-07-10 19:43:00,
2013-07-10 15:48:00,91.4,75.0,30.01,NW,304,0.0,5.0,59,0.00,,,0.00,meteohub,2013-07-10 19:48:00,
2013-07-10 15:53:00,91.9,75.6,30.01,NW,308,4.0,5.0,59,0.00,,,0.00,meteohub,2013-07-10 19:53:00,
2013-07-10 15:58:00,92.5,76.1,30.01,WNW,302,3.0,5.0,59,0.00,,,0.00,meteohub,2013-07-10 19:58:00,
2013-07-10 16:03:00,91.6,75.2,30.01,NW,305,1.0,7.0,59,0.00,,,0.00,meteohub,2013-07-10 20:03:00,
2013-07-10 16:09:00,91.8,74.8,30.01,NW,311,1.0,7.0,58,0.00,,,0.00,meteohub,2013-07-10 20:09:00,
2013-07-10 16:14:00,91.6,75.2,30.00,NW,311,1.0,7.0,59,0.00,,,0.00,meteohub,2013-07-10 20:14:00,
2013-07-10 16:19:00,91.0,75.2,30.00,WNW,296,4.0,6.0,60,0.00,,,0.00,meteohub,2013-07-10 20:19:00,
2013-07-10 16:24:00,90.9,75.0,30.00,WNW,292,6.0,8.0,60,0.00,,,0.00,meteohub,2013-07-10 20:24:00,
2013-07-10 16:29:00,90.1,74.3,30.00,WNW,298,1.0,8.0,60,0.00,,,0.00,meteohub,2013-07-10 20:29:00,
2013-07-10 16:34:00,89.4,74.7,30.00,West,281,6.0,8.0,62,0.00,,,0.00,meteohub,2013-07-10 20:34:00,
2013-07-10 16:39:00,89.8,75.0,29.99,WNW,297,3.0,8.0,62,0.00,,,0.00,meteohub,2013-07-10 20:39:00,
2013-07-10 16:44:00,90.1,74.3,29.99,West,275,1.0,8.0,60,0.00,,,0.00,meteohub,2013-07-10 20:44:00,
2013-07-10 16:49:00,90.9,74.5,29.99,WNW,294,4.0,8.0,59,0.00,,,0.00,meteohub,2013-07-10 20:49:00,
2013-07-10 16:54:00,91.2,74.8,29.99,NW,306,4.0,7.0,59,0.00,,,0.00,meteohub,2013-07-10 20:54:00,
2013-07-10 16:59:00,90.1,74.3,29.99,NW,306,3.0,6.0,60,0.00,,,0.00,meteohub,2013-07-10 20:59:00,
2013-07-10 17:04:00,90.0,74.7,29.99,WNW,286,0.0,8.0,61,0.00,,,0.00,meteohub,2013-07-10 21:04:00,
2013-07-10 17:10:00,90.7,74.8,29.99,NW,321,1.0,8.0,60,0.00,,,0.00,meteohub,2013-07-10 21:10:00,
2013-07-10 17:15:00,90.9,74.5,29.99,NNW,331,0.0,8.0,59,0.00,,,0.00,meteohub,2013-07-10 21:15:00,
2013-07-10 17:20:00,90.1,74.3,29.99,WNW,297,0.0,8.0,60,0.00,,,0.00,meteohub,2013-07-10 21:20:00,
2013-07-10 17:25:00,90.0,74.1,29.99,WNW,303,3.0,9.0,60,0.00,,,0.00,meteohub,2013-07-10 21:25:00,
2013-07-10 17:30:00,90.1,74.3,29.98,NW,306,4.0,9.0,60,0.00,,,0.00,meteohub,2013-07-10 21:30:00,
2013-07-10 17:35:00,90.0,74.1,29.99,WNW,295,4.0,8.0,60,0.00,,,0.00,meteohub,2013-07-10 21:35:00,
2013-07-10 17:40:00,89.6,74.3,29.98,NW,318,3.0,9.0,61,0.00,,,0.00,meteohub,2013-07-10 21:40:00,
2013-07-10 17:45:00,89.8,74.1,29.99,WNW,303,3.0,9.0,60,0.00,,,0.00,meteohub,2013-07-10 21:45:00,
2013-07-10 17:50:00,89.6,74.3,29.98,NW,304,1.0,9.0,61,0.00,,,0.00,meteohub,2013-07-10 21:50:00,
2013-07-10 17:55:00,89.8,74.5,29.98,NW,306,3.0,8.0,61,0.00,,,0.00,meteohub,2013-07-10 21:55:00,
2013-07-10 18:00:00,89.8,74.1,29.98,WNW,293,9.0,9.0,60,0.00,,,0.00,meteohub,2013-07-10 22:00:00,
2013-07-10 18:06:00,89.1,73.9,29.98,WNW,298,2.0,9.0,61,0.00,,,0.00,meteohub,2013-07-10 22:06:00,
2013-07-10 18:11:00,88.9,74.1,29.98,WNW,286,5.0,9.0,62,0.00,,,0.00,meteohub,2013-07-10 22:11:00,
2013-07-10 18:16:00,88.9,74.1,29.98,NW,321,6.0,9.0,62,0.00,,,0.00,meteohub,2013-07-10 22:16:00,
2013-07-10 18:21:00,89.2,74.5,29.98,WNW,288,4.0,8.0,62,0.00,,,0.00,meteohub,2013-07-10 22:21:00,
2013-07-10 18:26:00,88.5,74.3,29.97,WNW,296,2.0,9.0,63,0.00,,,0.00,meteohub,2013-07-10 22:26:00,
2013-07-10 18:31:00,88.2,73.9,29.98,WNW,284,5.0,9.0,63,0.00,,,0.00,meteohub,2013-07-10 22:31:00,
2013-07-10 18:36:00,88.2,73.9,29.98,NW,306,0.0,10.0,63,0.00,,,0.00,meteohub,2013-07-10 22:36:00,
2013-07-10 18:41:00,88.3,73.6,29.98,NW,315,5.0,10.0,62,0.00,,,0.00,meteohub,2013-07-10 22:41:00,
2013-07-10 18:46:00,88.3,73.6,29.98,NW,309,6.0,9.0,62,0.00,,,0.00,meteohub,2013-07-10 22:46:00,
2013-07-10 18:51:00,88.3,73.6,29.97,NW,308,0.0,9.0,62,0.00,,,0.00,meteohub,2013-07-10 22:51:00,
2013-07-10 18:56:00,88.3,74.1,29.97,NW,304,4.0,9.0,63,0.00,,,0.00,meteohub,2013-07-10 22:56:00,
2013-07-10 19:02:00,88.2,73.9,29.97,WNW,302,2.0,9.0,63,0.00,,,0.00,meteohub,2013-07-10 23:02:00,
2013-07-10 19:07:00,88.2,73.9,29.96,NW,315,2.0,9.0,63,0.00,,,0.00,meteohub,2013-07-10 23:07:00,
2013-07-10 19:12:00,88.0,74.3,29.97,WNW,290,1.0,9.0,64,0.00,,,0.00,meteohub,2013-07-10 23:12:00,
2013-07-10 19:17:00,88.3,74.1,29.97,NW,320,2.0,9.0,63,0.00,,,0.00,meteohub,2013-07-10 23:17:00,
2013-07-10 19:22:00,88.2,73.9,29.97,NW,315,0.0,9.0,63,0.00,,,0.00,meteohub,2013-07-10 23:22:00,
2013-07-10 19:27:00,87.6,74.3,29.98,WNW,290,3.0,8.0,65,0.00,,,0.00,meteohub,2013-07-10 23:27:00,
2013-07-10 19:32:00,87.3,74.5,29.98,NW,317,3.0,8.0,66,0.00,,,0.00,meteohub,2013-07-10 23:32:00,
2013-07-10 19:37:00,86.9,74.7,29.97,NW,313,1.0,9.0,67,0.00,,,0.00,meteohub,2013-07-10 23:37:00,
2013-07-10 19:42:00,86.9,74.7,29.98,NW,317,0.0,9.0,67,0.00,,,0.00,meteohub,2013-07-10 23:42:00,
2013-07-10 19:47:00,86.7,73.9,29.98,NW,311,1.0,9.0,66,0.00,,,0.00,meteohub,2013-07-10 23:47:00,
2013-07-10 19:52:00,86.9,74.1,29.98,NW,325,1.0,7.0,66,0.00,,,0.00,meteohub,2013-07-10 23:52:00,
2013-07-10 19:57:00,87.1,74.3,29.98,NW,319,0.0,7.0,66,0.00,,,0.00,meteohub,2013-07-10 23:57:00,
2013-07-10 20:02:00,87.3,74.1,29.99,NW,319,1.0,7.0,65,0.00,,,0.00,meteohub,2013-07-11 00:02:00,
2013-07-10 20:07:00,86.4,74.1,30.00,ESE,104,4.0,8.0,67,0.00,,,0.00,meteohub,2013-07-11 00:07:00,
2013-07-10 20:12:00,83.3,72.9,30.01,East,86,16.0,16.0,71,0.00,,,0.00,meteohub,2013-07-11 00:12:00,
2013-07-10 20:17:00,81.0,73.0,30.01,ENE,66,13.0,27.0,77,0.00,,,0.00,meteohub,2013-07-11 00:17:00,
2013-07-10 20:22:00,80.2,72.7,30.01,East,89,9.0,27.0,78,0.00,,,0.00,meteohub,2013-07-11 00:22:00,
2013-07-10 20:27:00,80.1,73.4,30.01,ENE,61,17.0,27.0,80,0.00,,,0.00,meteohub,2013-07-11 00:27:00,
2013-07-10 20:32:00,80.4,74.1,30.00,East,84,17.0,24.0,81,0.00,,,0.00,meteohub,2013-07-11 00:32:00,
2013-07-10 20:38:00,79.9,73.9,30.00,East,100,9.0,25.0,82,0.00,,,0.00,meteohub,2013-07-11 00:38:00,
2013-07-10 20:43:00,78.8,72.9,30.00,East,88,3.0,25.0,82,0.00,,,0.00,meteohub,2013-07-11 00:43:00,
2013-07-10 20:48:00,78.3,73.0,29.99,East,84,7.0,25.0,84,0.00,,,0.00,meteohub,2013-07-11 00:48:00,
2013-07-10 20:53:00,77.9,73.4,30.00,NE,54,7.0,22.0,86,0.01,,,0.01,meteohub,2013-07-11 00:53:00,
2013-07-10 20:58:00,77.2,73.0,30.00,East,89,7.0,12.0,87,0.01,,,0.01,meteohub,2013-07-11 00:58:00,
2013-07-10 21:03:00,76.6,72.9,30.00,SSE,161,5.0,13.0,88,0.01,,,0.01,meteohub,2013-07-11 01:03:00,
2013-07-10 21:08:00,76.3,72.5,30.00,SSW,195,6.0,13.0,88,0.01,,,0.01,meteohub,2013-07-11 01:08:00,
2013-07-10 21:13:00,76.6,72.9,30.01,SSE,155,4.0,13.0,88,0.01,,,0.01,meteohub,2013-07-11 01:13:00,
2013-07-10 21:18:00,76.5,72.7,30.01,SSE,157,0.0,9.0,88,0.02,,,0.02,meteohub,2013-07-11 01:18:00,
2013-07-10 21:23:00,76.5,72.7,30.00,SSE,157,0.0,7.0,88,0.02,,,0.02,meteohub,2013-07-11 01:23:00,
2013-07-10 21:28:00,76.5,73.0,30.01,SSE,157,0.0,5.0,89,0.02,,,0.02,meteohub,2013-07-11 01:28:00,
2013-07-10 21:34:00,76.6,73.2,30.00,SSE,157,0.0,4.0,89,0.02,,,0.02,meteohub,2013-07-11 01:34:00,
2013-07-10 21:39:00,76.5,73.0,30.01,NNW,344,0.0,1.0,89,0.02,,,0.02,meteohub,2013-07-11 01:39:00,
2013-07-10 21:44:00,76.3,72.9,30.01,NNW,344,0.0,5.0,89,0.02,,,0.02,meteohub,2013-07-11 01:44:00,
2013-07-10 21:49:00,76.3,72.9,30.01,NNW,344,0.0,5.0,89,0.02,,,0.02,meteohub,2013-07-11 01:49:00,
2013-07-10 21:54:00,76.1,72.9,30.02,NNW,344,1.0,5.0,90,0.01,,,0.02,meteohub,2013-07-11 01:54:00,
2013-07-10 21:59:00,75.9,72.5,30.02,NNW,343,0.0,3.0,89,0.01,,,0.02,meteohub,2013-07-11 01:59:00,
2013-07-10 22:04:00,75.7,72.3,30.03,NNW,344,0.0,5.0,89,0.01,,,0.02,meteohub,2013-07-11 02:04:00,
2013-07-10 22:09:00,75.6,72.1,30.03,NNW,344,0.0,5.0,89,0.02,,,0.03,meteohub,2013-07-11 02:09:00,
2013-07-10 22:14:00,75.6,72.5,30.04,NNW,344,2.0,5.0,90,0.01,,,0.03,meteohub,2013-07-11 02:14:00,
2013-07-10 22:19:00,75.4,72.3,30.04,North,0,0.0,4.0,90,0.01,,,0.03,meteohub,2013-07-11 02:19:00,
2013-07-10 22:24:00,75.4,72.3,30.04,North,0,0.0,2.0,90,0.01,,,0.03,meteohub,2013-07-11 02:24:00,
2013-07-10 22:29:00,75.2,72.1,30.04,North,0,0.0,3.0,90,0.01,,,0.03,meteohub,2013-07-11 02:29:00,
2013-07-10 22:35:00,75.4,72.3,30.04,North,0,0.0,3.0,90,0.01,,,0.03,meteohub,2013-07-11 02:35:00,
2013-07-10 22:40:00,75.6,72.5,30.04,North,0,0.0,2.0,90,0.01,,,0.03,meteohub,2013-07-11 02:40:00,
2013-07-10 22:45:00,75.4,72.3,30.04,North,0,1.0,3.0,90,0.01,,,0.03,meteohub,2013-07-11 02:45:00,
2013-07-10 22:50:00,75.4,72.3,30.04,North,0,0.0,3.0,90,0.01,,,0.03,meteohub,2013-07-11 02:50:00,
2013-07-10 22:55:00,75.2,72.1,30.03,North,0,0.0,2.0,90,0.01,,,0.03,meteohub,2013-07-11 02:55:00,
2013-07-10 23:00:00,75.4,72.3,30.03,North,0,0.0,2.0,90,0.01,,,0.04,meteohub,2013-07-11 03:00:00,
2013-07-10 23:05:00,75.2,72.1,30.03,North,0,0.0,2.0,90,0.01,,,0.04,meteohub,2013-07-11 03:05:00,
2013-07-10 23:10:00,75.0,72.0,30.03,North,0,0.0,0.0,90,0.01,,,0.04,meteohub,2013-07-11 03:10:00,
2013-07-10 23:15:00,75.0,72.0,30.03,North,0,0.0,0.0,90,0.01,,,0.04,meteohub,2013-07-11 03:15:00,
2013-07-10 23:20:00,75.0,72.1,30.04,North,0,0.0,0.0,91,0.01,,,0.04,meteohub,2013-07-11 03:20:00,
2013-07-10 23:25:00,75.4,72.5,30.04,North,0,0.0,2.0,91,0.01,,,0.04,meteohub,2013-07-11 03:25:00,
2013-07-10 23:31:00,75.6,72.5,30.04,North,0,1.0,3.0,90,0.01,,,0.04,meteohub,2013-07-11 03:31:00,
2013-07-10 23:36:00,75.4,72.3,30.04,North,0,0.0,3.0,90,0.01,,,0.04,meteohub,2013-07-11 03:36:00,
2013-07-10 23:41:00,75.4,72.3,30.04,North,0,0.0,2.0,90,0.01,,,0.04,meteohub,2013-07-11 03:41:00,
2013-07-10 23:46:00,75.4,72.3,30.04,North,0,0.0,1.0,90,0.01,,,0.04,meteohub,2013-07-11 03:46:00,
2013-07-10 23:51:00,75.4,72.3,30.04,North,0,0.0,2.0,90,0.01,,,0.04,meteohub,2013-07-11 03:51:00,
2013-07-10 23:56:00,75.0,72.0,30.04,North,0,0.0,4.0,90,0.00,,,0.04,meteohub,2013-07-11 03:56:00,